Chippewa Falls, WI (54729)

10:08 AM CST on February 14, 2016 (GMT -0600)
Bateman | | Change Station
CLOSE
Current Station
Personal Weather Station
Location: Chippewa Falls, WI
Elevation: 928 ft
Nearby Weather Stations

Elev 928 ft 44.93 °N, 91.27 °W | Updated 2 seconds ago

Overcast
Overcast
10.9 °F
Feels Like -1 °F
N
8.1
Wind Variable Wind from SSE
Gusts 8.1 mph

Today
High -- | Low -- °F
--% Chance of Precip.
Yesterday
High -- | Low -- °F
Precip. -- in
Pressure 30.19 in
Visibility 4.0 miles
Clouds Overcast 4200 ft
Windchill -1 °F
Dew Point 2 °F
Humidity 67%
Rainfall 0.00 in
Snow Depth Not available.
7:08 AM 5:31 PM
Waxing Crescent, 43% visible
METAR KEAU 141556Z 14009KT 4SM -SN OVC042 M13/M18 A3011 RMK AO2 SNB05 SLP223 P0000 T11281183
Pressure 30.19 in
Visibility 4.0 miles
Clouds Overcast 4200 ft
Windchill -1 °F
Dew Point 2 °F
Humidity 67%
Rainfall 0.00 in
Snow Depth Not available.
7:08 AM 5:31 PM
Waxing Crescent, 43% visible
METAR KEAU 141556Z 14009KT 4SM -SN OVC042 M13/M18 A3011 RMK AO2 SNB05 SLP223 P0000 T11281183

10-Day Weather Forecast

Almanac

Astronomy

Feb. 14, 2016 Rise Set
Actual Time
Civil Twilight
Nautical Twilight
Astronomical Twilight
Moon
Length of Visible Light
Length of Day
Tomorrow will be .
, % of the Moon is Illuminated

Today's Extremes

State Highs State Lows

Community

WunderPhotos

Upload Photos

1,892,819 photos uploaded!

WunderBlog® & News

Nearby

Air Quality

  Air Quality AQ Index Pollutant
Not available.

Snow Depth

Station Depth Elevation

Earthquake Activity

City Distance Mag. Time & Date
Minimum magnitude displayed is 2.5.

Coastal Water Temperatures

Place Temperature

Stations

Nearby Weather Stations

Station Location Temp. Windchill Dew Point Humidity Wind Precip. Elev Updated Type
                   

Watches & Warnings

There are currently no watches in effect.